Terminal Aerodrome Forecast
Issued by NWS

Home | Current Version | Previous Version | Text Only | Print | Product List | Glossary Off
Versions: 1 2 3 4 5 6 7 8 9 10 11 12 13 14 15 16 17

000
FTUS43 KICT 150500
TAFRSL
TAF
KRSL 150522Z 1506/1606 21010KT P6SM BKN080
     FM151000 35009KT P6SM VCSH OVC040
     FM151300 01013KT P6SM VCSH OVC020
     FM152000 04010KT P6SM OVC030=

USA.gov is the U.S. government's official web portal to all federal, state and local government web resources and services.